sensor_id;sensor_type;location;lat;lon;timestamp;temperature;humidity
20658;DHT22;10488;50.846;4.078;2022-09-24T00:01:15;14.30;99.90
20658;DHT22;10488;50.846;4.078;2022-09-24T00:03:43;14.30;99.90
20658;DHT22;10488;50.846;4.078;2022-09-24T00:06:13;14.10;99.90
20658;DHT22;10488;50.846;4.078;2022-09-24T00:08:39;14.20;99.90
20658;DHT22;10488;50.846;4.078;2022-09-24T00:11:07;14.10;99.90
20658;DHT22;10488;50.846;4.078;2022-09-24T00:13:34;14.00;99.90
20658;DHT22;10488;50.846;4.078;2022-09-24T00:16:19;13.90;99.90
20658;DHT22;10488;50.846;4.078;2022-09-24T00:18:45;14.00;99.90
20658;DHT22;10488;50.846;4.078;2022-09-24T00:21:17;14.10;99.90
20658;DHT22;10488;50.846;4.078;2022-09-24T00:23:48;14.20;99.90
20658;DHT22;10488;50.846;4.078;2022-09-24T00:26:14;14.00;99.90
20658;DHT22;10488;50.846;4.078;2022-09-24T00:28:58;13.80;99.90
20658;DHT22;10488;50.846;4.078;2022-09-24T00:31:25;13.90;99.90
20658;DHT22;10488;50.846;4.078;2022-09-24T00:33:51;13.90;99.90
20658;DHT22;10488;50.846;4.078;2022-09-24T00:36:19;13.80;99.90
20658;DHT22;10488;50.846;4.078;2022-09-24T00:38:48;13.80;99.90
20658;DHT22;10488;50.846;4.078;2022-09-24T00:41:17;13.90;99.90
20658;DHT22;10488;50.846;4.078;2022-09-24T00:43:47;13.90;99.90
20658;DHT22;10488;50.846;4.078;2022-09-24T00:46:18;14.00;99.90
20658;DHT22;10488;50.846;4.078;2022-09-24T00:48:46;13.90;99.90
20658;DHT22;10488;50.846;4.078;2022-09-24T00:51:18;13.90;99.90
20658;DHT22;10488;50.846;4.078;2022-09-24T00:53:47;13.90;99.90
20658;DHT22;10488;50.846;4.078;2022-09-24T00:56:15;14.00;99.90
20658;DHT22;10488;50.846;4.078;2022-09-24T00:58:50;14.00;99.90
20658;DHT22;10488;50.846;4.078;2022-09-24T01:01:18;14.10;99.90
20658;DHT22;10488;50.846;4.078;2022-09-24T01:03:46;14.10;99.90
20658;DHT22;10488;50.846;4.078;2022-09-24T01:06:13;14.10;99.90
20658;DHT22;10488;50.846;4.078;2022-09-24T01:08:40;14.00;99.90
20658;DHT22;10488;50.846;4.078;2022-09-24T01:27:53;13.80;99.90
20658;DHT22;10488;50.846;4.078;2022-09-24T01:30:21;13.90;99.90
20658;DHT22;10488;50.846;4.078;2022-09-24T01:33:00;13.90;99.90
20658;DHT22;10488;50.846;4.078;2022-09-24T01:35:34;14.10;99.90
20658;DHT22;10488;50.846;4.078;2022-09-24T01:38:08;14.00;99.90
20658;DHT22;10488;50.846;4.078;2022-09-24T01:40:36;14.00;99.90
20658;DHT22;10488;50.846;4.078;2022-09-24T01:43:06;13.90;99.90
20658;DHT22;10488;50.846;4.078;2022-09-24T01:45:34;14.00;99.90
20658;DHT22;10488;50.846;4.078;2022-09-24T01:48:03;14.10;99.90
20658;DHT22;10488;50.846;4.078;2022-09-24T01:50:34;14.00;99.90
20658;DHT22;10488;50.846;4.078;2022-09-24T01:53:18;14.00;99.90
20658;DHT22;10488;50.846;4.078;2022-09-24T01:55:52;14.00;99.90
20658;DHT22;10488;50.846;4.078;2022-09-24T01:58:29;13.90;99.90
20658;DHT22;10488;50.846;4.078;2022-09-24T02:01:06;13.70;99.90
20658;DHT22;10488;50.846;4.078;2022-09-24T02:03:38;13.80;99.90
20658;DHT22;10488;50.846;4.078;2022-09-24T02:06:12;13.80;99.90
20658;DHT22;10488;50.846;4.078;2022-09-24T02:08:43;13.80;99.90
20658;DHT22;10488;50.846;4.078;2022-09-24T02:11:19;13.90;99.90
20658;DHT22;10488;50.846;4.078;2022-09-24T02:14:01;13.70;99.90
20658;DHT22;10488;50.846;4.078;2022-09-24T02:16:48;13.80;99.90
20658;DHT22;10488;50.846;4.078;2022-09-24T02:19:22;14.00;99.90
20658;DHT22;10488;50.846;4.078;2022-09-24T02:21:51;13.90;99.90
20658;DHT22;10488;50.846;4.078;2022-09-24T02:24:23;13.80;99.90
20658;DHT22;10488;50.846;4.078;2022-09-24T02:26:51;13.90;99.90
20658;DHT22;10488;50.846;4.078;2022-09-24T02:29:17;13.80;99.90
20658;DHT22;10488;50.846;4.078;2022-09-24T02:31:53;13.70;99.90
20658;DHT22;10488;50.846;4.078;2022-09-24T02:34:32;13.80;99.90
20658;DHT22;10488;50.846;4.078;2022-09-24T02:37:06;13.80;99.90
20658;DHT22;10488;50.846;4.078;2022-09-24T02:39:34;13.80;99.90
20658;DHT22;10488;50.846;4.078;2022-09-24T02:42:04;13.90;99.90
20658;DHT22;10488;50.846;4.078;2022-09-24T02:44:34;13.80;99.90
20658;DHT22;10488;50.846;4.078;2022-09-24T02:47:05;13.80;99.90
20658;DHT22;10488;50.846;4.078;2022-09-24T02:49:32;13.70;99.90
20658;DHT22;10488;50.846;4.078;2022-09-24T02:51:57;13.80;99.90
20658;DHT22;10488;50.846;4.078;2022-09-24T02:54:24;13.90;99.90
20658;DHT22;10488;50.846;4.078;2022-09-24T02:56:50;14.00;99.90
20658;DHT22;10488;50.846;4.078;2022-09-24T02:59:16;14.00;99.90
20658;DHT22;10488;50.846;4.078;2022-09-24T03:01:41;13.90;99.90
20658;DHT22;10488;50.846;4.078;2022-09-24T03:04:07;13.80;99.90
20658;DHT22;10488;50.846;4.078;2022-09-24T03:06:34;13.80;99.90
20658;DHT22;10488;50.846;4.078;2022-09-24T03:09:01;13.90;99.90
20658;DHT22;10488;50.846;4.078;2022-09-24T03:11:27;13.80;99.90
20658;DHT22;10488;50.846;4.078;2022-09-24T03:13:53;13.80;99.90
20658;DHT22;10488;50.846;4.078;2022-09-24T03:16:20;13.80;99.90
20658;DHT22;10488;50.846;4.078;2022-09-24T03:18:47;13.80;99.90
20658;DHT22;10488;50.846;4.078;2022-09-24T03:21:14;13.70;99.90
20658;DHT22;10488;50.846;4.078;2022-09-24T03:23:41;13.70;99.90
20658;DHT22;10488;50.846;4.078;2022-09-24T03:26:07;13.80;99.90
20658;DHT22;10488;50.846;4.078;2022-09-24T03:28:33;13.70;99.90
20658;DHT22;10488;50.846;4.078;2022-09-24T03:31:00;13.90;99.90
20658;DHT22;10488;50.846;4.078;2022-09-24T03:38:39;13.60;99.90
20658;DHT22;10488;50.846;4.078;2022-09-24T03:41:05;13.50;99.90
20658;DHT22;10488;50.846;4.078;2022-09-24T03:43:33;13.50;99.90
20658;DHT22;10488;50.846;4.078;2022-09-24T03:45:59;13.70;99.90
20658;DHT22;10488;50.846;4.078;2022-09-24T03:48:25;13.60;99.90
20658;DHT22;10488;50.846;4.078;2022-09-24T03:50:51;13.70;99.90
20658;DHT22;10488;50.846;4.078;2022-09-24T03:53:18;13.60;99.90
20658;DHT22;10488;50.846;4.078;2022-09-24T03:55:53;13.60;99.90
20658;DHT22;10488;50.846;4.078;2022-09-24T03:58:19;13.60;99.90
20658;DHT22;10488;50.846;4.078;2022-09-24T04:00:44;13.60;99.90
20658;DHT22;10488;50.846;4.078;2022-09-24T04:03:10;13.70;99.90
20658;DHT22;10488;50.846;4.078;2022-09-24T04:05:36;13.70;99.90
20658;DHT22;10488;50.846;4.078;2022-09-24T04:08:02;13.70;99.90
20658;DHT22;10488;50.846;4.078;2022-09-24T04:10:30;13.70;99.90
20658;DHT22;10488;50.846;4.078;2022-09-24T04:12:55;13.60;99.90
20658;DHT22;10488;50.846;4.078;2022-09-24T04:15:21;13.60;99.90
20658;DHT22;10488;50.846;4.078;2022-09-24T04:17:57;13.70;99.90
20658;DHT22;10488;50.846;4.078;2022-09-24T04:20:27;13.70;99.90
20658;DHT22;10488;50.846;4.078;2022-09-24T04:22:55;13.60;99.90
20658;DHT22;10488;50.846;4.078;2022-09-24T04:25:23;13.50;99.90
20658;DHT22;10488;50.846;4.078;2022-09-24T04:27:53;13.60;99.90
20658;DHT22;10488;50.846;4.078;2022-09-24T04:30:20;13.60;99.90
20658;DHT22;10488;50.846;4.078;2022-09-24T04:32:47;13.70;99.90
20658;DHT22;10488;50.846;4.078;2022-09-24T04:35:12;13.70;99.90
20658;DHT22;10488;50.846;4.078;2022-09-24T04:37:38;13.60;99.90
20658;DHT22;10488;50.846;4.078;2022-09-24T04:40:04;13.60;99.90
20658;DHT22;10488;50.846;4.078;2022-09-24T04:42:31;13.60;99.90
20658;DHT22;10488;50.846;4.078;2022-09-24T04:44:58;13.50;99.90
20658;DHT22;10488;50.846;4.078;2022-09-24T04:47:23;13.50;99.90
20658;DHT22;10488;50.846;4.078;2022-09-24T04:49:50;13.50;99.90
20658;DHT22;10488;50.846;4.078;2022-09-24T04:52:16;13.40;99.90
20658;DHT22;10488;50.846;4.078;2022-09-24T04:54:43;13.50;99.90
20658;DHT22;10488;50.846;4.078;2022-09-24T04:57:13;13.60;99.90
20658;DHT22;10488;50.846;4.078;2022-09-24T04:59:39;13.50;99.90
20658;DHT22;10488;50.846;4.078;2022-09-24T05:02:05;13.50;99.90
20658;DHT22;10488;50.846;4.078;2022-09-24T05:04:34;13.50;99.90
20658;DHT22;10488;50.846;4.078;2022-09-24T05:07:00;13.50;99.90
20658;DHT22;10488;50.846;4.078;2022-09-24T05:09:25;13.40;99.90
20658;DHT22;10488;50.846;4.078;2022-09-24T05:11:51;13.50;99.90
20658;DHT22;10488;50.846;4.078;2022-09-24T05:14:17;13.40;99.90
20658;DHT22;10488;50.846;4.078;2022-09-24T05:16:42;13.50;99.90
20658;DHT22;10488;50.846;4.078;2022-09-24T05:19:08;13.60;99.90
20658;DHT22;10488;50.846;4.078;2022-09-24T05:21:34;13.60;99.90
20658;DHT22;10488;50.846;4.078;2022-09-24T05:24:00;13.50;99.90
20658;DHT22;10488;50.846;4.078;2022-09-24T05:26:25;13.60;99.90
20658;DHT22;10488;50.846;4.078;2022-09-24T05:29:09;13.70;99.90
20658;DHT22;10488;50.846;4.078;2022-09-24T05:31:35;13.60;99.90
20658;DHT22;10488;50.846;4.078;2022-09-24T05:34:01;13.50;99.90
20658;DHT22;10488;50.846;4.078;2022-09-24T05:36:28;13.70;99.90
20658;DHT22;10488;50.846;4.078;2022-09-24T05:38:53;13.90;99.90
20658;DHT22;10488;50.846;4.078;2022-09-24T05:41:19;13.90;99.90
20658;DHT22;10488;50.846;4.078;2022-09-24T05:43:45;13.90;99.90
20658;DHT22;10488;50.846;4.078;2022-09-24T05:46:11;14.10;99.90
20658;DHT22;10488;50.846;4.078;2022-09-24T05:48:36;14.20;99.90
20658;DHT22;10488;50.846;4.078;2022-09-24T05:51:02;14.00;99.90
20658;DHT22;10488;50.846;4.078;2022-09-24T05:53:29;14.10;99.90
20658;DHT22;10488;50.846;4.078;2022-09-24T05:55:54;13.70;99.90
20658;DHT22;10488;50.846;4.078;2022-09-24T05:58:20;13.70;99.90
20658;DHT22;10488;50.846;4.078;2022-09-24T06:00:46;13.80;99.90
20658;DHT22;10488;50.846;4.078;2022-09-24T06:03:13;13.80;99.90
20658;DHT22;10488;50.846;4.078;2022-09-24T06:05:44;13.80;99.90
20658;DHT22;10488;50.846;4.078;2022-09-24T06:08:10;13.70;99.90
20658;DHT22;10488;50.846;4.078;2022-09-24T06:10:36;13.70;99.90
20658;DHT22;10488;50.846;4.078;2022-09-24T06:13:02;13.80;99.90
20658;DHT22;10488;50.846;4.078;2022-09-24T06:15:28;13.90;99.90
20658;DHT22;10488;50.846;4.078;2022-09-24T06:17:55;14.00;99.90
20658;DHT22;10488;50.846;4.078;2022-09-24T06:20:22;13.90;99.90
20658;DHT22;10488;50.846;4.078;2022-09-24T06:22:48;13.80;99.90
20658;DHT22;10488;50.846;4.078;2022-09-24T06:25:13;13.90;99.90
20658;DHT22;10488;50.846;4.078;2022-09-24T06:27:39;13.90;99.90
20658;DHT22;10488;50.846;4.078;2022-09-24T06:30:05;13.80;99.90
20658;DHT22;10488;50.846;4.078;2022-09-24T06:32:31;13.90;99.90
20658;DHT22;10488;50.846;4.078;2022-09-24T06:34:57;13.90;99.90
20658;DHT22;10488;50.846;4.078;2022-09-24T06:37:22;14.00;99.90
20658;DHT22;10488;50.846;4.078;2022-09-24T06:39:48;14.00;99.90
20658;DHT22;10488;50.846;4.078;2022-09-24T06:42:14;13.80;99.90
20658;DHT22;10488;50.846;4.078;2022-09-24T06:44:39;13.90;99.90
20658;DHT22;10488;50.846;4.078;2022-09-24T06:47:06;13.90;99.90
20658;DHT22;10488;50.846;4.078;2022-09-24T06:49:32;13.80;99.90
20658;DHT22;10488;50.846;4.078;2022-09-24T06:51:58;14.00;99.90
20658;DHT22;10488;50.846;4.078;2022-09-24T06:54:25;13.90;99.90
20658;DHT22;10488;50.846;4.078;2022-09-24T06:56:51;13.90;99.90
20658;DHT22;10488;50.846;4.078;2022-09-24T06:59:17;14.00;99.90
20658;DHT22;10488;50.846;4.078;2022-09-24T07:01:43;14.10;99.90
20658;DHT22;10488;50.846;4.078;2022-09-24T07:04:10;14.00;99.90
20658;DHT22;10488;50.846;4.078;2022-09-24T07:06:35;14.10;99.90
20658;DHT22;10488;50.846;4.078;2022-09-24T07:09:21;14.40;99.90
20658;DHT22;10488;50.846;4.078;2022-09-24T07:11:47;14.20;99.90
20658;DHT22;10488;50.846;4.078;2022-09-24T07:14:13;14.20;99.90
20658;DHT22;10488;50.846;4.078;2022-09-24T07:16:39;14.20;99.90
20658;DHT22;10488;50.846;4.078;2022-09-24T07:19:04;14.30;99.90
20658;DHT22;10488;50.846;4.078;2022-09-24T07:21:30;14.30;99.90
20658;DHT22;10488;50.846;4.078;2022-09-24T07:23:56;14.30;99.90
20658;DHT22;10488;50.846;4.078;2022-09-24T07:26:21;14.40;99.90
20658;DHT22;10488;50.846;4.078;2022-09-24T07:28:47;14.50;99.90
20658;DHT22;10488;50.846;4.078;2022-09-24T07:31:12;14.80;99.90
20658;DHT22;10488;50.846;4.078;2022-09-24T07:33:38;14.80;99.90
20658;DHT22;10488;50.846;4.078;2022-09-24T07:36:04;14.60;99.90
20658;DHT22;10488;50.846;4.078;2022-09-24T07:38:34;14.40;99.90
20658;DHT22;10488;50.846;4.078;2022-09-24T07:41:01;14.40;99.90
20658;DHT22;10488;50.846;4.078;2022-09-24T07:43:29;14.40;99.90
20658;DHT22;10488;50.846;4.078;2022-09-24T07:45:56;14.20;99.90
20658;DHT22;10488;50.846;4.078;2022-09-24T07:48:22;14.10;99.90
20658;DHT22;10488;50.846;4.078;2022-09-24T07:50:49;14.20;99.90
20658;DHT22;10488;50.846;4.078;2022-09-24T07:53:16;14.20;99.90
20658;DHT22;10488;50.846;4.078;2022-09-24T07:55:42;14.20;99.90
20658;DHT22;10488;50.846;4.078;2022-09-24T07:58:10;14.20;99.90
20658;DHT22;10488;50.846;4.078;2022-09-24T08:00:36;13.90;99.90
20658;DHT22;10488;50.846;4.078;2022-09-24T08:03:02;14.00;99.90
20658;DHT22;10488;50.846;4.078;2022-09-24T08:05:29;13.90;99.90
20658;DHT22;10488;50.846;4.078;2022-09-24T08:07:57;13.90;99.90
20658;DHT22;10488;50.846;4.078;2022-09-24T08:10:24;14.00;99.90
20658;DHT22;10488;50.846;4.078;2022-09-24T08:12:50;14.20;99.90
20658;DHT22;10488;50.846;4.078;2022-09-24T08:15:16;14.30;99.90
20658;DHT22;10488;50.846;4.078;2022-09-24T08:17:42;14.10;99.90
20658;DHT22;10488;50.846;4.078;2022-09-24T08:20:08;14.10;99.90
20658;DHT22;10488;50.846;4.078;2022-09-24T08:22:34;14.20;99.90
20658;DHT22;10488;50.846;4.078;2022-09-24T08:25:00;14.10;99.90
20658;DHT22;10488;50.846;4.078;2022-09-24T08:27:27;14.30;99.90
20658;DHT22;10488;50.846;4.078;2022-09-24T08:29:53;14.30;99.90
20658;DHT22;10488;50.846;4.078;2022-09-24T08:32:18;14.20;99.90
20658;DHT22;10488;50.846;4.078;2022-09-24T08:34:44;14.40;99.90
20658;DHT22;10488;50.846;4.078;2022-09-24T08:37:11;14.40;99.90
20658;DHT22;10488;50.846;4.078;2022-09-24T08:39:37;14.40;99.90
20658;DHT22;10488;50.846;4.078;2022-09-24T08:42:05;14.30;99.90
20658;DHT22;10488;50.846;4.078;2022-09-24T08:44:44;14.40;99.90
20658;DHT22;10488;50.846;4.078;2022-09-24T08:50:16;14.40;99.90
20658;DHT22;10488;50.846;4.078;2022-09-24T08:58:43;14.60;99.90
20658;DHT22;10488;50.846;4.078;2022-09-24T09:01:04;14.60;99.90
20658;DHT22;10488;50.846;4.078;2022-09-24T09:09:22;14.80;99.90
20658;DHT22;10488;50.846;4.078;2022-09-24T09:11:59;14.70;99.90
20658;DHT22;10488;50.846;4.078;2022-09-24T09:14:40;14.70;99.90
20658;DHT22;10488;50.846;4.078;2022-09-24T09:17:40;14.80;99.90
20658;DHT22;10488;50.846;4.078;2022-09-24T09:20:16;14.80;99.90
20658;DHT22;10488;50.846;4.078;2022-09-24T09:22:48;15.00;99.90
20658;DHT22;10488;50.846;4.078;2022-09-24T09:25:20;15.00;99.90
20658;DHT22;10488;50.846;4.078;2022-09-24T09:28:10;15.10;99.90
20658;DHT22;10488;50.846;4.078;2022-09-24T09:33:48;15.20;99.90
20658;DHT22;10488;50.846;4.078;2022-09-24T09:37:08;15.30;99.90
20658;DHT22;10488;50.846;4.078;2022-09-24T09:45:45;15.40;99.90
20658;DHT22;10488;50.846;4.078;2022-09-24T09:47:48;15.40;99.90
20658;DHT22;10488;50.846;4.078;2022-09-24T09:50:22;15.40;99.90
20658;DHT22;10488;50.846;4.078;2022-09-24T09:52:51;15.20;99.90
20658;DHT22;10488;50.846;4.078;2022-09-24T09:55:26;14.90;99.90
20658;DHT22;10488;50.846;4.078;2022-09-24T09:58:07;14.60;99.90
20658;DHT22;10488;50.846;4.078;2022-09-24T10:00:34;14.70;99.90
20658;DHT22;10488;50.846;4.078;2022-09-24T10:03:01;14.90;99.90
20658;DHT22;10488;50.846;4.078;2022-09-24T10:05:27;14.90;99.90
20658;DHT22;10488;50.846;4.078;2022-09-24T10:07:55;15.00;99.90
20658;DHT22;10488;50.846;4.078;2022-09-24T10:10:26;15.10;99.90
20658;DHT22;10488;50.846;4.078;2022-09-24T10:13:08;15.10;99.90
20658;DHT22;10488;50.846;4.078;2022-09-24T10:16:00;15.20;99.90
20658;DHT22;10488;50.846;4.078;2022-09-24T10:18:31;15.20;99.90
20658;DHT22;10488;50.846;4.078;2022-09-24T10:20:59;15.20;99.90
20658;DHT22;10488;50.846;4.078;2022-09-24T10:23:34;15.40;99.90
20658;DHT22;10488;50.846;4.078;2022-09-24T10:26:03;15.30;99.90
20658;DHT22;10488;50.846;4.078;2022-09-24T10:28:30;15.10;99.90
20658;DHT22;10488;50.846;4.078;2022-09-24T10:31:20;15.10;99.90
20658;DHT22;10488;50.846;4.078;2022-09-24T10:33:51;14.90;99.90
20658;DHT22;10488;50.846;4.078;2022-09-24T10:36:23;15.00;99.90
20658;DHT22;10488;50.846;4.078;2022-09-24T10:39:21;15.30;99.90
20658;DHT22;10488;50.846;4.078;2022-09-24T10:41:48;15.30;99.90
20658;DHT22;10488;50.846;4.078;2022-09-24T10:44:15;15.60;99.90
20658;DHT22;10488;50.846;4.078;2022-09-24T11:00:19;15.70;99.90
20658;DHT22;10488;50.846;4.078;2022-09-24T11:05:44;16.10;99.90
20658;DHT22;10488;50.846;4.078;2022-09-24T11:13:49;15.80;99.90
20658;DHT22;10488;50.846;4.078;2022-09-24T11:22:02;15.90;99.90
20658;DHT22;10488;50.846;4.078;2022-09-24T11:35:33;15.80;99.90
20658;DHT22;10488;50.846;4.078;2022-09-24T11:38:15;15.80;99.90
20658;DHT22;10488;50.846;4.078;2022-09-24T11:41:04;15.50;99.90
20658;DHT22;10488;50.846;4.078;2022-09-24T11:44:03;15.40;99.90
20658;DHT22;10488;50.846;4.078;2022-09-24T11:52:38;15.40;99.90
20658;DHT22;10488;50.846;4.078;2022-09-24T11:55:29;15.20;99.90
20658;DHT22;10488;50.846;4.078;2022-09-24T12:00:36;15.40;99.90
20658;DHT22;10488;50.846;4.078;2022-09-24T12:03:22;15.60;99.90
20658;DHT22;10488;50.846;4.078;2022-09-24T12:06:00;15.90;99.90
20658;DHT22;10488;50.846;4.078;2022-09-24T12:08:42;16.10;99.90
20658;DHT22;10488;50.846;4.078;2022-09-24T12:11:21;16.30;99.90
20658;DHT22;10488;50.846;4.078;2022-09-24T12:14:23;16.40;99.90
20658;DHT22;10488;50.846;4.078;2022-09-24T12:17:16;16.40;99.90
20658;DHT22;10488;50.846;4.078;2022-09-24T12:19:56;16.40;99.90
20658;DHT22;10488;50.846;4.078;2022-09-24T12:22:24;16.50;99.90
20658;DHT22;10488;50.846;4.078;2022-09-24T12:24:57;16.20;99.90
20658;DHT22;10488;50.846;4.078;2022-09-24T12:27:34;16.30;99.90
20658;DHT22;10488;50.846;4.078;2022-09-24T12:30:35;16.40;99.90
20658;DHT22;10488;50.846;4.078;2022-09-24T12:33:27;16.30;99.90
20658;DHT22;10488;50.846;4.078;2022-09-24T12:36:16;16.20;99.90
20658;DHT22;10488;50.846;4.078;2022-09-24T12:38:50;16.20;99.90
20658;DHT22;10488;50.846;4.078;2022-09-24T12:51:57;15.60;99.90
20658;DHT22;10488;50.846;4.078;2022-09-24T12:54:30;15.70;99.90
20658;DHT22;10488;50.846;4.078;2022-09-24T13:02:20;15.60;99.90
20658;DHT22;10488;50.846;4.078;2022-09-24T13:07:36;15.50;99.90
20658;DHT22;10488;50.846;4.078;2022-09-24T13:12:43;15.80;99.90
20658;DHT22;10488;50.846;4.078;2022-09-24T13:15:37;16.00;99.90
20658;DHT22;10488;50.846;4.078;2022-09-24T13:20:40;15.90;99.90
20658;DHT22;10488;50.846;4.078;2022-09-24T13:25:38;15.60;99.90
20658;DHT22;10488;50.846;4.078;2022-09-24T13:28:20;15.60;99.90
20658;DHT22;10488;50.846;4.078;2022-09-24T13:30:57;15.20;99.90
20658;DHT22;10488;50.846;4.078;2022-09-24T13:33:32;15.30;99.90
20658;DHT22;10488;50.846;4.078;2022-09-24T13:36:17;15.40;99.90
20658;DHT22;10488;50.846;4.078;2022-09-24T13:38:56;15.20;99.90
20658;DHT22;10488;50.846;4.078;2022-09-24T13:41:26;15.40;99.90
20658;DHT22;10488;50.846;4.078;2022-09-24T13:44:20;15.30;99.90
20658;DHT22;10488;50.846;4.078;2022-09-24T13:46:52;15.30;99.90
20658;DHT22;10488;50.846;4.078;2022-09-24T13:49:22;15.40;99.90
20658;DHT22;10488;50.846;4.078;2022-09-24T13:52:28;15.10;99.90
20658;DHT22;10488;50.846;4.078;2022-09-24T13:54:57;15.20;99.90
20658;DHT22;10488;50.846;4.078;2022-09-24T13:57:27;15.10;99.90
20658;DHT22;10488;50.846;4.078;2022-09-24T14:00:19;15.20;99.90
20658;DHT22;10488;50.846;4.078;2022-09-24T14:03:20;15.40;99.90
20658;DHT22;10488;50.846;4.078;2022-09-24T14:05:49;15.10;99.90
20658;DHT22;10488;50.846;4.078;2022-09-24T14:08:17;14.90;99.90
20658;DHT22;10488;50.846;4.078;2022-09-24T14:10:46;15.10;99.90
20658;DHT22;10488;50.846;4.078;2022-09-24T14:13:25;15.40;99.90
20658;DHT22;10488;50.846;4.078;2022-09-24T14:16:05;15.30;99.90
20658;DHT22;10488;50.846;4.078;2022-09-24T14:18:31;15.30;99.90
20658;DHT22;10488;50.846;4.078;2022-09-24T14:23:33;15.00;99.90
20658;DHT22;10488;50.846;4.078;2022-09-24T14:26:03;15.20;99.90
20658;DHT22;10488;50.846;4.078;2022-09-24T14:28:32;15.10;99.90
20658;DHT22;10488;50.846;4.078;2022-09-24T14:30:59;15.00;99.90
20658;DHT22;10488;50.846;4.078;2022-09-24T14:33:31;15.20;99.90
20658;DHT22;10488;50.846;4.078;2022-09-24T14:35:58;15.10;99.90
20658;DHT22;10488;50.846;4.078;2022-09-24T14:41:19;15.00;99.90
20658;DHT22;10488;50.846;4.078;2022-09-24T14:48:49;15.30;99.90
20658;DHT22;10488;50.846;4.078;2022-09-24T14:51:28;15.30;99.90
20658;DHT22;10488;50.846;4.078;2022-09-24T14:54:18;15.30;99.90
20658;DHT22;10488;50.846;4.078;2022-09-24T14:56:45;15.30;99.90
20658;DHT22;10488;50.846;4.078;2022-09-24T14:59:15;15.00;99.90
20658;DHT22;10488;50.846;4.078;2022-09-24T15:04:55;14.90;99.90
20658;DHT22;10488;50.846;4.078;2022-09-24T15:07:26;15.00;99.90
20658;DHT22;10488;50.846;4.078;2022-09-24T15:09:54;15.00;99.90
20658;DHT22;10488;50.846;4.078;2022-09-24T15:12:27;14.90;99.90
20658;DHT22;10488;50.846;4.078;2022-09-24T15:15:00;14.80;99.90
20658;DHT22;10488;50.846;4.078;2022-09-24T15:17:34;14.90;99.90
20658;DHT22;10488;50.846;4.078;2022-09-24T15:20:03;14.90;99.90
20658;DHT22;10488;50.846;4.078;2022-09-24T15:22:29;14.90;99.90
20658;DHT22;10488;50.846;4.078;2022-09-24T15:24:58;14.80;99.90
20658;DHT22;10488;50.846;4.078;2022-09-24T15:27:28;14.60;99.90
20658;DHT22;10488;50.846;4.078;2022-09-24T15:29:57;14.70;99.90
20658;DHT22;10488;50.846;4.078;2022-09-24T15:32:27;14.90;99.90
20658;DHT22;10488;50.846;4.078;2022-09-24T15:34:54;15.00;99.90
20658;DHT22;10488;50.846;4.078;2022-09-24T15:37:24;15.00;99.90
20658;DHT22;10488;50.846;4.078;2022-09-24T15:39:51;15.00;99.90
20658;DHT22;10488;50.846;4.078;2022-09-24T15:42:26;15.00;99.90
20658;DHT22;10488;50.846;4.078;2022-09-24T15:44:52;14.80;99.90
20658;DHT22;10488;50.846;4.078;2022-09-24T15:47:19;14.70;99.90
20658;DHT22;10488;50.846;4.078;2022-09-24T15:49:45;14.50;99.90
20658;DHT22;10488;50.846;4.078;2022-09-24T15:52:13;14.50;99.90
20658;DHT22;10488;50.846;4.078;2022-09-24T15:54:40;14.70;99.90
20658;DHT22;10488;50.846;4.078;2022-09-24T15:57:12;14.80;99.90
20658;DHT22;10488;50.846;4.078;2022-09-24T15:59:38;14.60;99.90
20658;DHT22;10488;50.846;4.078;2022-09-24T16:02:17;14.70;99.90
20658;DHT22;10488;50.846;4.078;2022-09-24T16:04:46;14.90;99.90
20658;DHT22;10488;50.846;4.078;2022-09-24T16:07:13;14.90;99.90
20658;DHT22;10488;50.846;4.078;2022-09-24T16:09:38;15.00;99.90
20658;DHT22;10488;50.846;4.078;2022-09-24T16:12:05;14.80;99.90
20658;DHT22;10488;50.846;4.078;2022-09-24T16:14:31;14.70;99.90
20658;DHT22;10488;50.846;4.078;2022-09-24T16:16:57;14.70;99.90
20658;DHT22;10488;50.846;4.078;2022-09-24T16:19:23;14.70;99.90
20658;DHT22;10488;50.846;4.078;2022-09-24T16:21:48;14.50;99.90
20658;DHT22;10488;50.846;4.078;2022-09-24T16:24:16;14.50;99.90
20658;DHT22;10488;50.846;4.078;2022-09-24T16:26:42;14.60;99.90
20658;DHT22;10488;50.846;4.078;2022-09-24T16:29:08;14.60;99.90
20658;DHT22;10488;50.846;4.078;2022-09-24T16:31:36;14.60;99.90
20658;DHT22;10488;50.846;4.078;2022-09-24T16:34:02;14.60;99.90
20658;DHT22;10488;50.846;4.078;2022-09-24T16:36:28;14.60;99.90
20658;DHT22;10488;50.846;4.078;2022-09-24T16:38:54;14.70;99.90
20658;DHT22;10488;50.846;4.078;2022-09-24T16:41:22;14.60;99.90
20658;DHT22;10488;50.846;4.078;2022-09-24T16:43:47;14.60;99.90
20658;DHT22;10488;50.846;4.078;2022-09-24T16:46:13;14.70;99.90
20658;DHT22;10488;50.846;4.078;2022-09-24T16:48:39;14.60;99.90
20658;DHT22;10488;50.846;4.078;2022-09-24T16:51:08;14.70;99.90
20658;DHT22;10488;50.846;4.078;2022-09-24T16:53:35;14.80;99.90
20658;DHT22;10488;50.846;4.078;2022-09-24T16:56:05;14.70;99.90
20658;DHT22;10488;50.846;4.078;2022-09-24T16:58:32;14.70;99.90
20658;DHT22;10488;50.846;4.078;2022-09-24T17:00:57;14.40;99.90
20658;DHT22;10488;50.846;4.078;2022-09-24T17:03:23;14.40;99.90
20658;DHT22;10488;50.846;4.078;2022-09-24T17:05:49;14.60;99.90
20658;DHT22;10488;50.846;4.078;2022-09-24T17:08:16;14.60;99.90
20658;DHT22;10488;50.846;4.078;2022-09-24T17:10:51;14.60;99.90
20658;DHT22;10488;50.846;4.078;2022-09-24T17:13:17;14.70;99.90
20658;DHT22;10488;50.846;4.078;2022-09-24T17:15:43;14.50;99.90
20658;DHT22;10488;50.846;4.078;2022-09-24T17:18:09;14.40;99.90
20658;DHT22;10488;50.846;4.078;2022-09-24T17:20:35;14.50;99.90
20658;DHT22;10488;50.846;4.078;2022-09-24T17:23:01;14.40;99.90
20658;DHT22;10488;50.846;4.078;2022-09-24T17:25:27;14.40;99.90
20658;DHT22;10488;50.846;4.078;2022-09-24T17:27:53;14.40;99.90
20658;DHT22;10488;50.846;4.078;2022-09-24T17:30:19;14.50;99.90
20658;DHT22;10488;50.846;4.078;2022-09-24T17:32:46;14.60;99.90
20658;DHT22;10488;50.846;4.078;2022-09-24T17:35:13;14.50;99.90
20658;DHT22;10488;50.846;4.078;2022-09-24T17:37:40;14.50;99.90
20658;DHT22;10488;50.846;4.078;2022-09-24T17:40:06;14.30;99.90
20658;DHT22;10488;50.846;4.078;2022-09-24T17:42:33;14.20;99.90
20658;DHT22;10488;50.846;4.078;2022-09-24T17:44:58;14.30;99.90
20658;DHT22;10488;50.846;4.078;2022-09-24T17:47:25;14.30;99.90
20658;DHT22;10488;50.846;4.078;2022-09-24T17:50:11;14.30;99.90
20658;DHT22;10488;50.846;4.078;2022-09-24T17:52:36;14.50;99.90
20658;DHT22;10488;50.846;4.078;2022-09-24T17:55:03;14.60;99.90
20658;DHT22;10488;50.846;4.078;2022-09-24T17:57:32;14.50;99.90
20658;DHT22;10488;50.846;4.078;2022-09-24T17:59:58;14.40;99.90
20658;DHT22;10488;50.846;4.078;2022-09-24T18:02:23;14.40;99.90